Time;durP1;ratioP1;P1;durP2;ratioP2;P2;SDS_P1;SDS_P2;PMS_P1;PMS_P2;Temp;Humidity;BMP_temperature;BMP_pressure;BME280_temperature;BME280_humidity;BME280_pressure;Samples;Min_cycle;Max_cycle;Signal;HPM_P1;HPM_P2
2023/11/14 00:00:44;;;;;;;4.55;2.28;;;;;;;4.88;77.32;94886.81;5108870;28;20027;-66
2023/11/14 00:03:10;;;;;;;3.03;2.08;;;;;;;4.83;77.48;94888.84;5142162;27;20053;-66
2023/11/14 00:05:36;;;;;;;5.00;3.20;;;;;;;4.88;75.64;94897.13;5109734;28;20034;-65
2023/11/14 00:08:02;;;;;;;10.00;5.95;;;;;;;4.91;74.54;94881.50;5108620;28;20508;-65
2023/11/14 00:10:28;;;;;;;9.18;5.85;;;;;;;4.79;74.98;94886.53;5109288;28;20428;-65
2023/11/14 00:12:53;;;;;;;4.80;3.03;;;;;;;4.61;75.24;94888.44;5112633;28;20028;-65
2023/11/14 00:15:19;;;;;;;4.15;2.30;;;;;;;4.59;75.40;94877.41;5112234;28;20028;-65
2023/11/14 00:17:44;;;;;;;3.15;2.17;;;;;;;4.29;75.87;94887.72;5095186;28;20028;-66
2023/11/14 00:20:10;;;;;;;3.67;2.10;;;;;;;4.34;76.57;94885.72;5113324;28;20024;-66
2023/11/14 00:22:38;;;;;;;5.05;2.50;;;;;;;4.27;77.31;94890.38;5095255;28;20336;-65
2023/11/14 00:25:04;;;;;;;3.83;2.20;;;;;;;4.09;77.29;94886.28;5095431;28;20031;-66
2023/11/14 00:27:29;;;;;;;4.72;2.47;;;;;;;3.76;78.63;94884.66;5146219;27;20478;-66
2023/11/14 00:29:55;;;;;;;3.45;2.30;;;;;;;3.54;78.81;94901.25;5111966;28;20045;-65
2023/11/14 00:32:20;;;;;;;4.20;2.53;;;;;;;3.48;80.27;94901.59;5113413;28;20036;-65
2023/11/14 00:34:48;;;;;;;8.27;4.18;;;;;;;3.42;80.15;94912.16;5110812;28;20375;-66
2023/11/14 00:37:14;;;;;;;5.65;3.60;;;;;;;3.67;79.77;94918.56;5111968;28;20104;-66
2023/11/14 00:39:40;;;;;;;6.15;3.88;;;;;;;3.76;78.80;94906.06;5110336;28;20486;-65
2023/11/14 00:42:07;;;;;;;5.85;4.00;;;;;;;3.58;79.64;94910.44;5113339;28;20034;-66
2023/11/14 00:44:32;;;;;;;5.75;3.90;;;;;;;3.63;78.45;94910.22;5112609;28;20101;-66
2023/11/14 00:46:58;;;;;;;7.65;4.40;;;;;;;3.72;78.59;94903.72;5111788;28;20031;-66
2023/11/14 00:49:23;;;;;;;7.45;3.83;;;;;;;3.65;78.67;94912.66;5111532;28;20034;-66
2023/11/14 00:51:49;;;;;;;8.73;3.60;;;;;;;3.67;78.76;94877.47;5113042;28;20027;-65
2023/11/14 00:54:14;;;;;;;10.75;4.45;;;;;;;3.55;78.92;94905.47;5128566;27;20043;-65
2023/11/14 00:56:40;;;;;;;6.00;3.47;;;;;;;3.64;78.71;94900.75;5112926;28;20402;-65
2023/11/14 00:59:06;;;;;;;7.95;4.03;;;;;;;3.35;79.65;94901.41;5111254;28;20026;-66
2023/11/14 01:01:31;;;;;;;9.65;4.20;;;;;;;3.26;80.12;94906.19;5111441;28;20019;-66
2023/11/14 01:03:57;;;;;;;6.57;4.05;;;;;;;3.34;79.67;94909.19;5112427;28;20024;-66
2023/11/14 01:06:23;;;;;;;6.40;3.85;;;;;;;3.38;78.74;94905.56;5128439;27;20425;-65
2023/11/14 01:08:48;;;;;;;7.07;3.67;;;;;;;3.12;78.54;94905.19;5102979;28;20032;-66
2023/11/14 01:11:14;;;;;;;7.25;4.00;;;;;;;2.74;79.23;94909.72;5124883;27;20027;-65
2023/11/14 01:13:39;;;;;;;7.65;4.28;;;;;;;2.91;79.93;94916.56;5091854;28;20086;-65
2023/11/14 01:16:05;;;;;;;9.73;4.43;;;;;;;2.78;80.88;94920.66;5124819;27;20403;-65
2023/11/14 01:18:30;;;;;;;6.22;3.72;;;;;;;2.62;81.41;94911.19;5107531;28;20441;-65
2023/11/14 01:20:56;;;;;;;8.65;3.97;;;;;;;2.94;80.86;94908.69;5107479;28;20036;-65
2023/11/14 01:23:21;;;;;;;8.05;4.25;;;;;;;2.84;81.13;94915.19;5090498;28;20043;-66
2023/11/14 01:25:47;;;;;;;6.60;3.92;;;;;;;3.06;80.04;94905.47;5091757;28;20028;-66
2023/11/14 01:28:12;;;;;;;5.65;3.50;;;;;;;3.08;80.65;94901.09;5107393;28;20040;-65
2023/11/14 01:30:37;;;;;;;5.78;3.00;;;;;;;3.08;79.99;94882.31;5091735;28;20028;-65
2023/11/14 01:33:03;;;;;;;7.18;3.33;;;;;;;2.81;80.82;94879.44;5090186;28;20043;-65
2023/11/14 01:35:28;;;;;;;5.53;2.83;;;;;;;3.03;80.67;94871.47;5091603;28;20020;-65
2023/11/14 01:37:54;;;;;;;4.70;2.58;;;;;;;3.00;80.74;94856.22;5091470;28;20032;-65
2023/11/14 01:40:19;;;;;;;5.72;2.40;;;;;;;2.93;81.09;94852.34;5090229;28;20028;-66
2023/11/14 01:42:45;;;;;;;4.72;2.08;;;;;;;2.91;81.46;94845.53;5073234;28;20039;-65
2023/11/14 01:45:10;;;;;;;4.80;2.30;;;;;;;3.05;79.93;94852.50;5091126;28;20051;-66
2023/11/14 01:47:36;;;;;;;4.10;2.53;;;;;;;3.09;79.29;94848.88;5091322;28;20040;-66
2023/11/14 01:50:01;;;;;;;6.32;2.70;;;;;;;3.20;78.50;94850.03;5106930;28;20500;-66
2023/11/14 01:52:27;;;;;;;5.80;3.20;;;;;;;2.83;80.00;94837.41;5107102;28;20031;-67
2023/11/14 01:54:52;;;;;;;4.72;2.67;;;;;;;2.92;80.92;94856.63;5106798;28;20032;-65
2023/11/14 01:57:18;;;;;;;7.55;3.13;;;;;;;2.88;81.37;94842.31;5090198;28;20025;-65
2023/11/14 01:59:43;;;;;;;6.53;2.83;;;;;;;2.99;81.28;94850.25;5106882;28;20038;-66
2023/11/14 02:02:08;;;;;;;5.43;2.88;;;;;;;2.95;80.40;94850.50;5107129;28;20024;-66
2023/11/14 02:04:34;;;;;;;6.15;2.95;;;;;;;2.92;81.44;94848.91;5072893;28;20032;-66
2023/11/14 02:07:00;;;;;;;5.35;2.70;;;;;;;2.93;82.21;94854.91;5106977;28;20028;-65
2023/11/14 02:09:27;;;;;;;5.22;2.63;;;;;;;3.06;80.44;94858.47;5102995;28;20027;-65
2023/11/14 02:11:52;;;;;;;7.65;3.10;;;;;;;3.05;79.62;94856.81;5144314;27;20028;-66
2023/11/14 02:14:18;;;;;;;4.07;2.58;;;;;;;3.20;79.28;94855.16;5110074;28;20039;-65
2023/11/14 02:16:47;;;;;;;4.30;2.67;;;;;;;3.10;79.60;94844.56;5109952;28;20019;-65
2023/11/14 02:19:13;;;;;;;6.07;3.08;;;;;;;3.07;79.95;94860.13;5110078;28;20110;-65
2023/11/14 02:21:38;;;;;;;5.00;2.78;;;;;;;3.06;79.21;94843.06;5127138;27;20440;-65
2023/11/14 02:24:05;;;;;;;4.63;3.00;;;;;;;2.74;80.63;94852.47;5092907;28;20031;-65
2023/11/14 02:26:30;;;;;;;5.70;2.72;;;;;;;2.76;80.19;94835.22;5111435;28;20020;-65
2023/11/14 02:28:58;;;;;;;4.88;2.20;;;;;;;2.85;79.37;94829.63;5144256;27;20390;-66
2023/11/14 02:31:24;;;;;;;6.32;3.33;;;;;;;2.92;79.93;94856.63;5093369;28;20043;-67
2023/11/14 02:33:49;;;;;;;7.00;3.30;;;;;;;2.83;79.67;94831.44;5110105;28;20039;-65
2023/11/14 02:36:15;;;;;;;5.43;2.78;;;;;;;2.89;80.10;94854.22;5144390;27;20030;-65
2023/11/14 02:38:40;;;;;;;6.82;2.42;;;;;;;2.68;79.90;94862.13;5111153;28;20352;-65
2023/11/14 02:41:06;;;;;;;5.60;2.65;;;;;;;2.61;80.44;94852.25;5144262;27;20020;-65
2023/11/14 02:43:31;;;;;;;4.28;2.65;;;;;;;2.60;79.91;94846.28;5143912;27;20071;-65
2023/11/14 02:45:56;;;;;;;5.53;2.90;;;;;;;2.73;79.71;94858.47;5111151;28;20024;-66
2023/11/14 02:48:22;;;;;;;4.30;2.60;;;;;;;2.60;80.00;94868.56;5110989;28;20023;-65
2023/11/14 02:50:48;;;;;;;5.35;2.70;;;;;;;2.66;80.36;94873.34;5111018;28;20035;-66
2023/11/14 02:53:14;;;;;;;6.93;2.85;;;;;;;2.54;80.31;94868.88;5110834;28;20107;-65
2023/11/14 02:55:43;;;;;;;4.57;2.92;;;;;;;2.58;80.98;94881.44;5109576;28;20032;-65
2023/11/14 02:58:12;;;;;;;5.45;2.90;;;;;;;2.65;81.06;94884.53;5129825;27;20042;-65
2023/11/14 03:00:38;;;;;;;5.07;2.97;;;;;;;2.43;80.07;94895.03;5114983;28;20045;-65
2023/11/14 03:03:03;;;;;;;5.63;3.60;;;;;;;2.55;80.70;94875.63;5114862;28;20032;-66
2023/11/14 03:05:29;;;;;;;6.38;3.70;;;;;;;2.46;80.61;94870.06;5114904;28;20028;-65
2023/11/14 03:07:54;;;;;;;9.70;3.45;;;;;;;2.26;80.63;94897.59;5095957;28;20035;-65
2023/11/14 03:10:20;;;;;;;4.95;3.38;;;;;;;2.48;80.37;94900.78;5127290;27;20480;-65
2023/11/14 03:12:45;;;;;;;5.60;3.50;;;;;;;2.48;80.88;94898.22;5103277;28;20092;-65
2023/11/14 03:15:11;;;;;;;5.85;3.35;;;;;;;2.55;80.73;94894.41;5111952;28;20478;-65
2023/11/14 03:17:37;;;;;;;5.80;3.45;;;;;;;2.35;80.67;94874.06;5113309;28;20036;-66
2023/11/14 03:20:03;;;;;;;7.78;3.88;;;;;;;2.47;81.15;94865.75;5114515;28;20023;-65
2023/11/14 03:22:29;;;;;;;5.75;3.33;;;;;;;2.39;79.06;94878.13;5146416;27;20036;-66
2023/11/14 03:24:54;;;;;;;5.20;3.13;;;;;;;2.42;79.85;94890.81;5113875;28;20405;-65
2023/11/14 03:27:20;;;;;;;7.55;3.25;;;;;;;2.43;79.77;94890.75;5114032;28;20489;-65
2023/11/14 03:29:45;;;;;;;5.93;3.30;;;;;;;2.26;81.10;94901.00;5113589;28;20093;-66
2023/11/14 03:32:11;;;;;;;5.20;3.25;;;;;;;1.96;81.07;94881.06;5118563;27;20044;-65
2023/11/14 03:34:37;;;;;;;5.88;3.55;;;;;;;1.99;81.42;94898.03;5126771;27;20036;-65
2023/11/14 03:37:03;;;;;;;4.25;3.17;;;;;;;1.99;81.95;94890.34;5094239;28;20035;-65
2023/11/14 03:39:29;;;;;;;4.82;3.55;;;;;;;2.33;80.47;94910.03;5092462;28;20054;-66
2023/11/14 03:41:55;;;;;;;6.68;3.75;;;;;;;2.39;80.47;94907.16;5092439;28;20475;-65
2023/11/14 03:44:20;;;;;;;6.80;3.85;;;;;;;2.28;81.14;94913.72;5092105;28;20056;-65
2023/11/14 03:46:46;;;;;;;5.07;2.92;;;;;;;2.01;81.93;94896.22;5109503;28;20028;-66
2023/11/14 03:49:11;;;;;;;4.97;3.35;;;;;;;2.00;81.92;94909.94;5109304;28;20032;-65
2023/11/14 03:51:37;;;;;;;6.40;3.75;;;;;;;2.24;82.54;94895.94;5093780;28;20071;-65
2023/11/14 03:54:02;;;;;;;4.70;3.25;;;;;;;2.31;81.85;94903.31;5094502;28;20024;-66
2023/11/14 03:56:28;;;;;;;6.43;3.00;;;;;;;2.42;81.00;94888.22;5113956;28;20295;-65
2023/11/14 03:58:53;;;;;;;5.22;3.33;;;;;;;2.32;81.25;94876.81;5112574;28;20031;-66
2023/11/14 04:01:19;;;;;;;4.63;3.00;;;;;;;2.34;81.86;94874.97;5112664;28;20031;-65
2023/11/14 04:03:44;;;;;;;13.40;6.05;;;;;;;2.41;80.92;94878.91;5112467;28;20036;-66
2023/11/14 04:06:13;;;;;;;6.20;2.92;;;;;;;2.28;80.49;94893.22;5095506;28;20421;-65
2023/11/14 04:08:39;;;;;;;8.77;5.28;;;;;;;2.04;81.23;94890.97;5093570;28;20077;-65
2023/11/14 04:11:07;;;;;;;7.78;3.40;;;;;;;2.20;81.36;94891.88;5111775;28;20031;-65
2023/11/14 04:13:33;;;;;;;7.00;3.20;;;;;;;2.27;81.76;94889.00;5111912;28;20122;-65
2023/11/14 04:15:58;;;;;;;6.60;3.22;;;;;;;2.09;82.40;94883.88;5112310;28;20110;-65
2023/11/14 04:18:24;;;;;;;5.47;3.45;;;;;;;2.20;81.86;94889.31;5095172;28;20420;-65
2023/11/14 04:20:49;;;;;;;8.25;3.50;;;;;;;2.12;82.81;94896.53;5091639;28;20092;-65
2023/11/14 04:23:14;;;;;;;5.43;3.67;;;;;;;2.27;81.35;94889.00;5109603;27;20036;-65
2023/11/14 04:25:40;;;;;;;6.38;4.05;;;;;;;2.09;82.51;94885.59;5109827;27;20039;-65
2023/11/14 04:28:06;;;;;;;11.25;5.32;;;;;;;2.36;81.93;94873.97;5109261;27;20038;-65
2023/11/14 04:30:31;;;;;;;9.43;4.53;;;;;;;2.38;82.16;94885.00;5108642;27;20042;-65
2023/11/14 04:32:57;;;;;;;14.90;4.78;;;;;;;2.28;82.40;94883.78;5109103;28;20032;-65
2023/11/14 04:35:22;;;;;;;9.30;4.57;;;;;;;2.38;82.80;94873.94;5108475;28;20176;-65
2023/11/14 04:37:48;;;;;;;9.18;4.15;;;;;;;2.57;82.37;94874.66;5108980;28;20044;-65
2023/11/14 04:40:14;;;;;;;6.50;3.08;;;;;;;2.51;81.04;94872.41;5107897;28;20019;-65
2023/11/14 04:42:39;;;;;;;6.53;3.78;;;;;;;2.21;81.88;94870.47;5090719;28;20035;-65
2023/11/14 04:45:06;;;;;;;12.07;8.43;;;;;;;2.43;82.49;94879.66;5073509;28;20073;-66
2023/11/14 04:47:32;;;;;;;12.63;8.05;;;;;;;2.20;83.10;94867.94;5108679;28;20031;-65
2023/11/14 04:49:57;;;;;;;14.05;8.13;;;;;;;2.39;82.91;94863.56;5088605;28;20066;-65
2023/11/14 04:52:23;;;;;;;20.13;11.07;;;;;;;2.43;82.81;94872.78;5107483;28;20543;-65
2023/11/14 04:54:49;;;;;;;19.25;10.23;;;;;;;2.69;83.78;94868.06;5107885;28;20023;-65
2023/11/14 04:57:14;;;;;;;13.60;7.40;;;;;;;2.73;84.69;94866.16;5109255;28;20027;-65
2023/11/14 04:59:40;;;;;;;13.63;7.35;;;;;;;2.84;84.64;94869.00;5106928;28;20049;-65
2023/11/14 05:02:05;;;;;;;10.90;5.47;;;;;;;2.67;84.22;94852.78;5107049;28;20027;-65
2023/11/14 05:04:31;;;;;;;11.10;6.15;;;;;;;2.71;84.72;94889.34;5107620;28;20028;-65
2023/11/14 05:06:56;;;;;;;11.32;6.40;;;;;;;2.84;84.44;94899.81;5108562;28;20027;-65
2023/11/14 05:09:21;;;;;;;12.85;6.97;;;;;;;2.83;83.30;94895.59;5088955;28;20489;-65
2023/11/14 05:11:47;;;;;;;13.45;8.05;;;;;;;2.64;84.29;94899.06;5106870;28;20039;-65
2023/11/14 05:14:12;;;;;;;13.77;7.65;;;;;;;2.54;84.34;94915.03;5108792;28;20485;-65
2023/11/14 05:16:41;;;;;;;41.55;19.73;;;;;;;2.35;84.31;94922.78;5107392;28;20461;-65
2023/11/14 05:19:07;;;;;;;20.83;11.73;;;;;;;2.51;84.32;94925.41;5089570;28;20143;-65
2023/11/14 05:21:33;;;;;;;17.90;9.57;;;;;;;2.55;83.83;94924.38;5104821;28;20031;-65
2023/11/14 05:23:59;;;;;;;15.68;10.52;;;;;;;2.45;83.37;94926.53;5108739;28;20392;-65
2023/11/14 05:26:24;;;;;;;16.90;11.73;;;;;;;2.75;81.17;94931.06;5106952;28;20329;-65
2023/11/14 05:28:49;;;;;;;20.15;12.48;;;;;;;2.42;82.36;94929.25;5108529;28;20542;-65
2023/11/14 05:31:15;;;;;;;13.02;10.70;;;;;;;2.85;80.65;94927.13;5104555;28;20076;-65
2023/11/14 05:33:40;;;;;;;24.73;17.38;;;;;;;2.75;81.09;94931.06;5108087;28;20036;-64
2023/11/14 05:36:06;;;;;;;16.63;10.43;;;;;;;2.94;80.27;94924.09;5107560;28;20035;-65
2023/11/14 05:38:32;;;;;;;11.57;8.00;;;;;;;2.90;79.91;94931.13;5108933;28;20036;-65
2023/11/14 05:40:58;;;;;;;13.98;7.97;;;;;;;3.01;78.73;94940.00;5106223;28;20026;-65
2023/11/14 05:43:24;;;;;;;9.40;5.78;;;;;;;2.66;79.29;94933.19;5107689;28;20413;-65
2023/11/14 05:45:50;;;;;;;7.53;5.35;;;;;;;2.45;79.53;94931.69;5089989;28;20039;-65
2023/11/14 05:48:19;;;;;;;9.63;5.88;;;;;;;1.96;80.98;94891.31;5106686;28;20110;-65
2023/11/14 05:50:45;;;;;;;8.88;6.28;;;;;;;2.32;80.56;94928.06;5105961;28;20027;-65
2023/11/14 05:53:10;;;;;;;10.43;6.45;;;;;;;2.19;80.89;94920.97;5106221;28;20038;-64
2023/11/14 05:55:36;;;;;;;14.20;9.05;;;;;;;2.01;81.97;94939.81;5107363;28;20023;-65
2023/11/14 05:58:02;;;;;;;12.40;8.38;;;;;;;2.28;81.09;94929.94;5106354;28;20513;-66
2023/11/14 06:00:28;;;;;;;12.63;7.70;;;;;;;2.23;81.68;94937.03;5104461;28;20050;-65
2023/11/14 06:02:54;;;;;;;12.73;7.03;;;;;;;2.26;80.86;94928.34;5073024;28;20437;-65
2023/11/14 06:05:19;;;;;;;10.00;6.88;;;;;;;2.13;82.47;94931.50;5107369;28;20024;-65
2023/11/14 06:07:44;;;;;;;9.98;6.70;;;;;;;2.29;80.97;94938.47;5106666;28;20460;-65
2023/11/14 06:10:11;;;;;;;9.05;6.45;;;;;;;2.39;80.55;94934.53;5105444;28;20022;-65
2023/11/14 06:12:39;;;;;;;10.75;7.13;;;;;;;2.24;81.26;94936.13;5106265;28;20067;-65
2023/11/14 06:15:07;;;;;;;10.52;6.75;;;;;;;2.52;81.04;94934.78;5106876;28;20554;-65
2023/11/14 06:17:32;;;;;;;9.18;6.28;;;;;;;2.35;81.45;94922.78;5107584;28;20031;-65
2023/11/14 06:19:58;;;;;;;9.60;5.32;;;;;;;2.61;81.11;94919.75;5087507;28;20020;-65
2023/11/14 06:22:23;;;;;;;11.00;5.85;;;;;;;2.58;80.80;94903.69;5106244;28;20258;-65
2023/11/14 06:24:48;;;;;;;8.00;4.80;;;;;;;2.65;80.59;94890.50;5106255;28;20089;-65
2023/11/14 06:27:14;;;;;;;6.45;4.40;;;;;;;2.59;81.47;94888.25;5107374;28;20026;-65
2023/11/14 06:29:40;;;;;;;8.38;4.68;;;;;;;2.82;80.52;94907.59;5105733;28;20035;-65
2023/11/14 06:32:06;;;;;;;6.05;4.22;;;;;;;2.78;80.75;94895.00;5110510;28;20024;-65
2023/11/14 06:34:31;;;;;;;7.18;4.22;;;;;;;2.82;80.68;94910.16;5093911;28;20092;-65
2023/11/14 06:36:56;;;;;;;7.95;4.40;;;;;;;2.62;81.25;94920.59;5111070;28;20035;-64
2023/11/14 06:39:22;;;;;;;7.82;5.10;;;;;;;2.83;81.35;94914.38;5109024;28;20101;-65
2023/11/14 06:41:49;;;;;;;6.95;4.70;;;;;;;2.79;81.71;94914.63;5092648;28;20028;-65
2023/11/14 06:44:15;;;;;;;9.43;5.25;;;;;;;2.78;81.68;94905.25;5111149;28;20043;-65
2023/11/14 06:46:40;;;;;;;7.03;4.75;;;;;;;2.71;82.50;94899.63;5111813;28;20055;-65
2023/11/14 06:49:05;;;;;;;8.13;4.78;;;;;;;2.95;82.45;94912.91;5111341;28;20409;-64
2023/11/14 06:51:31;;;;;;;9.20;5.97;;;;;;;2.84;82.44;94879.28;5107844;28;20031;-65
2023/11/14 06:53:56;;;;;;;5.22;3.80;;;;;;;3.04;82.49;94886.78;5092555;28;20027;-65
2023/11/14 06:56:22;;;;;;;5.60;3.08;;;;;;;3.20;82.29;94891.09;5092613;28;20504;-65
2023/11/14 06:58:47;;;;;;;5.13;3.70;;;;;;;3.12;82.37;94883.78;5110778;28;20390;-65
2023/11/14 07:01:13;;;;;;;5.95;4.40;;;;;;;3.23;82.72;94880.66;5108465;28;20031;-65
2023/11/14 07:03:39;;;;;;;9.10;5.65;;;;;;;3.30;83.02;94879.44;5109786;28;20044;-65
2023/11/14 07:06:05;;;;;;;12.73;7.70;;;;;;;3.37;82.95;94878.19;5109456;28;20059;-66
2023/11/14 07:08:31;;;;;;;13.60;8.75;;;;;;;3.55;83.28;94871.25;5109652;28;20028;-65
2023/11/14 07:10:57;;;;;;;14.77;9.38;;;;;;;3.40;83.83;94882.34;5107663;28;20527;-65
2023/11/14 07:13:23;;;;;;;15.80;9.82;;;;;;;3.77;83.58;94883.75;5110596;28;20039;-64
2023/11/14 07:15:48;;;;;;;14.07;10.05;;;;;;;3.95;83.33;94910.19;5108965;28;20061;-65
2023/11/14 07:18:14;;;;;;;13.57;8.93;;;;;;;4.08;84.30;94921.44;5110808;28;20023;-64
2023/11/14 07:20:39;;;;;;;12.13;8.35;;;;;;;4.36;83.94;94915.56;5107286;28;20031;-65
2023/11/14 07:23:04;;;;;;;13.73;9.60;;;;;;;4.56;83.82;94911.03;5109728;28;20027;-65
2023/11/14 07:25:34;;;;;;;15.25;10.25;;;;;;;5.48;81.43;94908.97;5108487;28;20020;-65
2023/11/14 07:27:59;;;;;;;14.25;9.70;;;;;;;7.44;75.61;94903.16;5108858;28;20031;-65
2023/11/14 07:30:26;;;;;;;13.57;9.65;;;;;;;8.92;67.69;94891.66;5108424;28;20038;-64
2023/11/14 07:32:51;;;;;;;16.35;8.85;;;;;;;10.27;63.63;94893.34;5094031;28;20034;-65
2023/11/14 07:35:21;;;;;;;11.63;8.63;;;;;;;11.17;59.35;94891.13;5110296;27;20028;-65
2023/11/14 07:37:46;;;;;;;11.25;8.00;;;;;;;11.47;57.37;94880.84;5103233;28;20036;-65
2023/11/14 07:40:12;;;;;;;10.90;7.22;;;;;;;10.85;60.08;94872.19;5111718;28;20027;-65
2023/11/14 07:42:38;;;;;;;10.48;7.25;;;;;;;10.88;59.19;94874.53;5112336;28;20458;-66
2023/11/14 07:45:06;;;;;;;12.68;8.75;;;;;;;10.83;59.45;94887.06;5111609;28;20043;-65
2023/11/14 07:47:32;;;;;;;11.95;7.72;;;;;;;10.78;59.40;94899.63;5114097;28;20035;-65
2023/11/14 07:49:57;;;;;;;8.77;7.10;;;;;;;10.29;61.64;94888.88;5113255;27;20553;-65
2023/11/14 07:52:23;;;;;;;15.48;11.38;;;;;;;9.91;62.58;94887.50;5112918;28;20092;-65
2023/11/14 07:54:49;;;;;;;21.25;12.98;;;;;;;9.49;63.30;94876.94;5112417;28;20035;-65
2023/11/14 07:57:15;;;;;;;15.23;11.07;;;;;;;9.40;65.40;94890.63;5110803;28;20081;-65
2023/11/14 07:59:41;;;;;;;11.27;7.10;;;;;;;9.15;67.31;94870.94;5110912;28;20462;-65
2023/11/14 08:02:06;;;;;;;10.93;7.90;;;;;;;9.09;67.36;94880.00;5126446;27;20035;-65
2023/11/14 08:04:32;;;;;;;18.08;11.77;;;;;;;8.72;68.50;94887.97;5111533;28;20035;-65
2023/11/14 08:06:57;;;;;;;14.15;10.35;;;;;;;8.67;68.73;94889.25;5112278;28;20023;-65
2023/11/14 08:09:23;;;;;;;12.95;9.60;;;;;;;8.59;70.33;94891.56;5145013;27;20053;-66
2023/11/14 08:11:48;;;;;;;17.73;10.02;;;;;;;8.66;70.14;94888.41;5113051;28;20447;-66
2023/11/14 08:14:14;;;;;;;16.60;9.60;;;;;;;8.73;68.66;94889.59;5146710;27;20031;-65
2023/11/14 08:16:40;;;;;;;15.10;10.52;;;;;;;8.71;67.53;94872.53;5129392;27;20039;-66
2023/11/14 08:19:05;;;;;;;15.00;9.52;;;;;;;8.53;67.77;94855.78;5112108;28;20031;-65
2023/11/14 08:21:31;;;;;;;11.25;7.35;;;;;;;8.63;67.65;94872.25;5129465;27;20081;-65
2023/11/14 08:23:56;;;;;;;14.73;9.75;;;;;;;8.83;66.50;94865.59;5113344;28;20019;-65
2023/11/14 08:26:22;;;;;;;14.88;9.75;;;;;;;8.88;67.16;94861.72;5112242;28;20028;-66
2023/11/14 08:28:48;;;;;;;19.52;7.53;;;;;;;8.86;67.56;94857.59;5129053;27;20028;-66
2023/11/14 08:31:15;;;;;;;12.45;7.60;;;;;;;9.08;67.26;94841.25;5112011;28;20034;-66
2023/11/14 08:33:42;;;;;;;10.50;6.70;;;;;;;9.23;66.83;94832.31;5146067;27;20490;-66
2023/11/14 08:36:07;;;;;;;14.15;7.30;;;;;;;9.42;66.33;94851.59;5111990;28;20027;-66
2023/11/14 08:38:34;;;;;;;10.25;6.07;;;;;;;9.65;64.11;94844.66;5111804;28;20038;-66
2023/11/14 08:41:01;;;;;;;8.50;5.07;;;;;;;9.69;63.98;94833.88;5145709;27;20043;-66
2023/11/14 08:43:27;;;;;;;8.07;5.60;;;;;;;9.84;63.86;94824.91;5111580;28;20059;-66
2023/11/14 08:45:52;;;;;;;10.95;5.55;;;;;;;9.99;64.15;94827.22;5111742;28;20051;-66
2023/11/14 08:48:18;;;;;;;9.70;6.30;;;;;;;9.81;63.77;94811.34;5146009;27;20024;-66
2023/11/14 08:50:43;;;;;;;11.90;6.05;;;;;;;10.04;62.67;94851.03;5112915;28;20031;-66
2023/11/14 08:53:09;;;;;;;15.23;7.65;;;;;;;10.03;62.50;94844.22;5145839;27;20486;-66
2023/11/14 08:55:35;;;;;;;12.05;6.50;;;;;;;10.10;61.93;94847.94;5111783;28;20490;-66
2023/11/14 08:58:01;;;;;;;19.35;8.57;;;;;;;10.27;60.91;94857.00;5111344;28;20028;-66
2023/11/14 09:00:27;;;;;;;20.45;9.40;;;;;;;10.01;61.29;94859.88;5094399;28;20031;-66
2023/11/14 09:02:52;;;;;;;14.63;7.60;;;;;;;10.13;61.64;94855.47;5145655;27;20028;-66
2023/11/14 09:05:17;;;;;;;12.15;5.97;;;;;;;10.09;61.07;94850.69;5145718;27;20019;-66
2023/11/14 09:07:43;;;;;;;13.50;5.93;;;;;;;10.26;60.30;94861.34;5145636;27;20043;-66
2023/11/14 09:10:09;;;;;;;8.52;4.63;;;;;;;10.34;59.53;94865.13;5112490;28;20600;-66
2023/11/14 09:12:34;;;;;;;7.18;4.18;;;;;;;10.25;59.83;94862.28;5145658;27;20129;-66
2023/11/14 09:15:00;;;;;;;7.25;4.00;;;;;;;10.41;59.29;94858.47;5112281;28;20470;-66
2023/11/14 09:17:25;;;;;;;7.88;4.15;;;;;;;10.46;59.15;94851.13;5128157;27;20103;-66
2023/11/14 09:19:52;;;;;;;10.68;5.03;;;;;;;10.61;59.71;94849.88;5112125;28;20024;-66
2023/11/14 09:22:17;;;;;;;8.35;3.97;;;;;;;10.65;58.71;94848.69;5112735;28;20027;-66
2023/11/14 09:24:43;;;;;;;6.05;3.72;;;;;;;10.55;58.60;94844.34;5127937;27;20039;-66
2023/11/14 09:27:08;;;;;;;7.53;4.07;;;;;;;10.67;58.69;94851.13;5145498;27;20076;-66
2023/11/14 09:29:34;;;;;;;11.35;6.15;;;;;;;10.77;57.78;94843.41;5112002;28;20060;-66
2023/11/14 09:32:02;;;;;;;8.85;4.63;;;;;;;10.98;57.23;94844.22;5128012;27;20039;-66
2023/11/14 09:34:27;;;;;;;7.35;4.00;;;;;;;11.04;57.28;94854.09;5110762;28;20027;-66
2023/11/14 09:36:53;;;;;;;7.22;3.80;;;;;;;10.76;57.55;94839.19;5112268;28;20518;-66
2023/11/14 09:39:20;;;;;;;7.88;3.70;;;;;;;11.16;56.16;94855.66;5145019;27;20032;-66
2023/11/14 09:41:45;;;;;;;8.35;4.55;;;;;;;11.14;56.54;94830.75;5112145;28;20042;-66
2023/11/14 09:44:11;;;;;;;5.55;3.30;;;;;;;11.21;56.32;94846.66;5111632;28;20062;-66
2023/11/14 09:46:37;;;;;;;10.20;4.72;;;;;;;11.06;56.20;94831.41;5127853;27;20035;-66
2023/11/14 09:49:04;;;;;;;6.68;4.50;;;;;;;10.86;56.54;94830.47;5093655;28;20028;-66
2023/11/14 09:51:31;;;;;;;9.88;3.97;;;;;;;11.24;56.10;94836.00;5144523;27;20032;-65
2023/11/14 09:53:56;;;;;;;9.15;4.47;;;;;;;11.11;56.56;94833.59;5127396;27;20035;-66
2023/11/14 09:56:22;;;;;;;7.50;4.65;;;;;;;11.29;55.55;94819.06;5110597;28;20028;-65
2023/11/14 09:58:51;;;;;;;7.97;3.70;;;;;;;11.36;55.29;94804.56;5110218;28;20035;-66
2023/11/14 10:01:16;;;;;;;9.27;5.47;;;;;;;11.56;54.66;94810.66;5127191;27;20132;-66
2023/11/14 10:03:42;;;;;;;7.10;4.28;;;;;;;11.62;55.13;94810.13;5111425;28;20035;-66
2023/11/14 10:06:08;;;;;;;4.03;2.50;;;;;;;11.72;54.01;94802.31;5110185;28;20050;-66
2023/11/14 10:08:34;;;;;;;4.03;2.60;;;;;;;11.72;53.52;94794.50;5111368;28;20036;-66
2023/11/14 10:11:09;;;;;;;6.22;3.00;;;;;;;11.63;55.05;94788.34;5127442;27;20405;-66
2023/11/14 10:13:39;;;;;;;6.35;3.80;;;;;;;11.98;54.01;94784.47;5110077;28;20044;-66
2023/11/14 10:16:31;;;;;;;8.10;3.90;;;;;;;11.92;54.84;94795.38;5110227;28;20122;-67
2023/11/14 10:18:56;;;;;;;7.72;3.17;;;;;;;12.24;54.50;94789.94;5109178;27;20217;-66
2023/11/14 10:21:29;;;;;;;5.07;2.60;;;;;;;12.48;53.20;94779.09;5111259;28;20061;-66
2023/11/14 10:23:56;;;;;;;6.95;3.90;;;;;;;12.27;53.79;94778.41;5109974;28;20114;-66
2023/11/14 10:26:21;;;;;;;16.40;9.00;;;;;;;11.97;54.26;94771.56;5111539;28;20023;-66
2023/11/14 10:28:55;;;;;;;7.97;5.07;;;;;;;12.02;54.52;94775.41;5111147;28;20036;-66
2023/11/14 10:31:36;;;;;;;6.38;3.53;;;;;;;12.20;53.96;94753.88;5110560;28;20099;-66
2023/11/14 10:34:06;;;;;;;7.88;3.90;;;;;;;12.31;53.05;94745.91;5108491;28;20051;-67
2023/11/14 10:36:51;;;;;;;7.70;4.15;;;;;;;12.25;53.90;94738.66;5076064;28;20520;-66
2023/11/14 10:39:18;;;;;;;5.10;3.35;;;;;;;12.29;53.68;94714.00;5109403;28;20040;-66
2023/11/14 10:41:44;;;;;;;6.35;3.15;;;;;;;12.41;53.04;94714.66;5109958;28;20067;-66
2023/11/14 10:44:10;;;;;;;5.10;3.00;;;;;;;12.58;52.95;94718.31;5110837;28;20565;-66
2023/11/14 10:46:36;;;;;;;6.50;3.05;;;;;;;12.47;52.92;94709.69;5110563;28;20028;-66
2023/11/14 10:49:03;;;;;;;7.03;3.05;;;;;;;12.36;53.42;94709.03;5109090;28;20031;-68
2023/11/14 10:51:33;;;;;;;6.32;3.33;;;;;;;12.52;52.08;94694.47;5076405;28;20031;-66
2023/11/14 10:53:59;;;;;;;4.72;2.97;;;;;;;12.56;52.70;94683.75;5093192;28;20578;-66
2023/11/14 10:56:24;;;;;;;8.52;3.90;;;;;;;12.59;52.80;94670.44;5092799;28;20039;-66
2023/11/14 10:58:49;;;;;;;6.72;3.17;;;;;;;12.67;52.68;94687.00;5092917;28;20035;-66
2023/11/14 11:01:15;;;;;;;4.15;2.35;;;;;;;12.72;52.72;94676.16;5111191;28;20073;-66
2023/11/14 11:03:40;;;;;;;5.53;2.65;;;;;;;12.75;52.34;94668.88;5092462;28;20043;-66
2023/11/14 11:06:07;;;;;;;7.93;4.80;;;;;;;12.80;51.91;94667.63;5109707;28;20024;-66
2023/11/14 11:08:32;;;;;;;8.88;3.88;;;;;;;12.91;51.79;94660.44;5109642;28;20059;-66
2023/11/14 11:10:58;;;;;;;7.45;4.60;;;;;;;12.89;51.87;94645.91;5109667;28;20042;-66
2023/11/14 11:13:24;;;;;;;7.60;3.35;;;;;;;13.08;51.19;94626.72;5075604;28;20432;-66
2023/11/14 11:15:50;;;;;;;9.23;4.40;;;;;;;13.01;51.63;94626.50;5092507;28;20398;-66
2023/11/14 11:18:22;;;;;;;9.20;4.13;;;;;;;12.95;51.65;94624.44;5111448;28;20572;-66
2023/11/14 11:20:48;;;;;;;5.53;3.13;;;;;;;13.04;50.84;94617.53;5097426;28;20028;-66
2023/11/14 11:23:13;;;;;;;7.10;3.20;;;;;;;13.12;50.77;94622.84;5114580;28;20524;-66
2023/11/14 11:25:41;;;;;;;5.30;2.95;;;;;;;13.20;51.28;94620.31;5114820;28;20024;-66
2023/11/14 11:28:21;;;;;;;6.60;2.85;;;;;;;13.18;51.10;94627.50;5113290;28;20112;-66
2023/11/14 11:31:08;;;;;;;5.10;2.67;;;;;;;13.30;50.49;94626.31;5114539;28;20027;-66